sensor_id;sensor_type;location;lat;lon;timestamp;pressure;altitude;pressure_sealevel;temperature;humidity
11198;BME280;5655;48.744;9.162;2022-12-11T00:00:39;95429.78;;;-0.37;100.00
11198;BME280;5655;48.744;9.162;2022-12-11T00:03:05;95429.03;;;-0.47;100.00
11198;BME280;5655;48.744;9.162;2022-12-11T00:05:30;95430.75;;;-0.51;100.00
11198;BME280;5655;48.744;9.162;2022-12-11T00:07:55;95424.75;;;-0.60;100.00
11198;BME280;5655;48.744;9.162;2022-12-11T00:10:22;95420.66;;;-0.78;100.00
11198;BME280;5655;48.744;9.162;2022-12-11T00:12:47;95426.03;;;-0.74;100.00
11198;BME280;5655;48.744;9.162;2022-12-11T00:15:12;95430.16;;;-0.56;100.00
11198;BME280;5655;48.744;9.162;2022-12-11T00:17:38;95429.03;;;-0.47;100.00
11198;BME280;5655;48.744;9.162;2022-12-11T00:20:03;95429.53;;;-0.15;100.00
11198;BME280;5655;48.744;9.162;2022-12-11T00:22:29;95427.50;;;-0.10;100.00
11198;BME280;5655;48.744;9.162;2022-12-11T00:24:54;95420.78;;;-0.66;100.00
11198;BME280;5655;48.744;9.162;2022-12-11T00:27:20;95422.53;;;-0.96;100.00
11198;BME280;5655;48.744;9.162;2022-12-11T00:29:45;95422.44;;;-0.53;100.00
11198;BME280;5655;48.744;9.162;2022-12-11T00:32:10;95416.84;;;-0.51;100.00
11198;BME280;5655;48.744;9.162;2022-12-11T00:34:36;95417.50;;;-0.63;100.00
11198;BME280;5655;48.744;9.162;2022-12-11T00:37:01;95413.78;;;-0.53;100.00
11198;BME280;5655;48.744;9.162;2022-12-11T00:39:26;95413.31;;;-0.64;100.00
11198;BME280;5655;48.744;9.162;2022-12-11T00:41:52;95410.47;;;-0.41;100.00
11198;BME280;5655;48.744;9.162;2022-12-11T00:44:17;95416.31;;;-0.36;100.00
11198;BME280;5655;48.744;9.162;2022-12-11T00:46:42;95407.66;;;-0.36;100.00
11198;BME280;5655;48.744;9.162;2022-12-11T00:49:08;95409.78;;;-0.30;100.00
11198;BME280;5655;48.744;9.162;2022-12-11T00:51:33;95415.91;;;-0.17;100.00
11198;BME280;5655;48.744;9.162;2022-12-11T00:53:58;95420.19;;;-0.04;100.00
11198;BME280;5655;48.744;9.162;2022-12-11T00:56:24;95412.38;;;-0.21;100.00
11198;BME280;5655;48.744;9.162;2022-12-11T00:58:49;95422.72;;;0.13;100.00
11198;BME280;5655;48.744;9.162;2022-12-11T01:01:21;95425.84;;;0.07;100.00
11198;BME280;5655;48.744;9.162;2022-12-11T01:03:47;95423.53;;;-0.24;100.00
11198;BME280;5655;48.744;9.162;2022-12-11T01:06:17;95426.38;;;0.00;100.00
11198;BME280;5655;48.744;9.162;2022-12-11T01:08:44;95427.97;;;-0.16;100.00
11198;BME280;5655;48.744;9.162;2022-12-11T01:11:12;95437.81;;;0.04;100.00
11198;BME280;5655;48.744;9.162;2022-12-11T01:13:38;95438.41;;;0.01;100.00
11198;BME280;5655;48.744;9.162;2022-12-11T01:16:14;95446.69;;;0.62;100.00
11198;BME280;5655;48.744;9.162;2022-12-11T01:18:40;95454.53;;;0.50;100.00
11198;BME280;5655;48.744;9.162;2022-12-11T01:21:10;95456.59;;;0.15;100.00
11198;BME280;5655;48.744;9.162;2022-12-11T01:23:37;95446.13;;;0.06;100.00
11198;BME280;5655;48.744;9.162;2022-12-11T01:26:11;95461.72;;;0.40;100.00
11198;BME280;5655;48.744;9.162;2022-12-11T01:28:37;95460.28;;;-0.07;100.00
11198;BME280;5655;48.744;9.162;2022-12-11T01:31:12;95461.75;;;0.11;100.00
11198;BME280;5655;48.744;9.162;2022-12-11T01:33:38;95456.91;;;0.13;100.00
11198;BME280;5655;48.744;9.162;2022-12-11T01:38:32;95455.47;;;-0.05;100.00
11198;BME280;5655;48.744;9.162;2022-12-11T01:40:58;95460.56;;;0.00;100.00
11198;BME280;5655;48.744;9.162;2022-12-11T01:43:23;95460.75;;;0.24;100.00
11198;BME280;5655;48.744;9.162;2022-12-11T01:45:49;95462.13;;;0.22;100.00
11198;BME280;5655;48.744;9.162;2022-12-11T01:48:20;95460.31;;;0.43;100.00
11198;BME280;5655;48.744;9.162;2022-12-11T01:50:49;95459.91;;;0.32;100.00
11198;BME280;5655;48.744;9.162;2022-12-11T01:53:21;95462.31;;;0.46;100.00
11198;BME280;5655;48.744;9.162;2022-12-11T01:55:50;95465.06;;;0.70;100.00
11198;BME280;5655;48.744;9.162;2022-12-11T01:58:19;95468.78;;;0.49;100.00
11198;BME280;5655;48.744;9.162;2022-12-11T02:00:45;95462.06;;;0.30;100.00
11198;BME280;5655;48.744;9.162;2022-12-11T02:03:11;95470.38;;;0.41;100.00
11198;BME280;5655;48.744;9.162;2022-12-11T02:05:36;95469.34;;;0.33;100.00
11198;BME280;5655;48.744;9.162;2022-12-11T02:08:03;95473.13;;;0.24;100.00
11198;BME280;5655;48.744;9.162;2022-12-11T02:10:52;95469.31;;;0.63;100.00
11198;BME280;5655;48.744;9.162;2022-12-11T02:13:59;95485.09;;;0.63;100.00
11198;BME280;5655;48.744;9.162;2022-12-11T02:16:49;95481.91;;;0.99;100.00
11198;BME280;5655;48.744;9.162;2022-12-11T02:19:30;95478.44;;;0.86;100.00
11198;BME280;5655;48.744;9.162;2022-12-11T02:22:08;95479.91;;;0.75;100.00
11198;BME280;5655;48.744;9.162;2022-12-11T02:28:17;95477.81;;;0.68;100.00
11198;BME280;5655;48.744;9.162;2022-12-11T02:30:51;95473.03;;;0.62;100.00
11198;BME280;5655;48.744;9.162;2022-12-11T02:33:25;95460.00;;;0.86;100.00
11198;BME280;5655;48.744;9.162;2022-12-11T02:35:55;95460.34;;;0.64;100.00
11198;BME280;5655;48.744;9.162;2022-12-11T02:38:29;95463.31;;;0.95;100.00
11198;BME280;5655;48.744;9.162;2022-12-11T02:40:56;95465.41;;;0.69;100.00
11198;BME280;5655;48.744;9.162;2022-12-11T02:43:24;95476.13;;;0.64;100.00
11198;BME280;5655;48.744;9.162;2022-12-11T02:45:50;95468.41;;;1.00;100.00
11198;BME280;5655;48.744;9.162;2022-12-11T02:48:16;95465.72;;;0.88;100.00
11198;BME280;5655;48.744;9.162;2022-12-11T02:50:46;95459.09;;;1.35;100.00
11198;BME280;5655;48.744;9.162;2022-12-11T02:53:20;95464.63;;;0.89;100.00
11198;BME280;5655;48.744;9.162;2022-12-11T02:55:51;95461.81;;;0.94;100.00
11198;BME280;5655;48.744;9.162;2022-12-11T02:58:22;95467.97;;;0.77;100.00
11198;BME280;5655;48.744;9.162;2022-12-11T03:00:49;95460.81;;;0.36;100.00
11198;BME280;5655;48.744;9.162;2022-12-11T03:03:14;95465.72;;;0.47;100.00
11198;BME280;5655;48.744;9.162;2022-12-11T03:05:40;95455.91;;;0.56;100.00
11198;BME280;5655;48.744;9.162;2022-12-11T03:08:06;95448.13;;;0.38;100.00
11198;BME280;5655;48.744;9.162;2022-12-11T03:10:31;95461.28;;;0.80;100.00
11198;BME280;5655;48.744;9.162;2022-12-11T03:12:58;95460.81;;;0.78;100.00
11198;BME280;5655;48.744;9.162;2022-12-11T03:15:48;95464.63;;;0.89;100.00
11198;BME280;5655;48.744;9.162;2022-12-11T03:18:42;95461.09;;;0.64;100.00
11198;BME280;5655;48.744;9.162;2022-12-11T03:24:08;95463.25;;;1.04;100.00
11198;BME280;5655;48.744;9.162;2022-12-11T03:26:41;95473.34;;;1.34;100.00
11198;BME280;5655;48.744;9.162;2022-12-11T03:29:20;95472.38;;;1.06;100.00
11198;BME280;5655;48.744;9.162;2022-12-11T03:32:04;95469.63;;;1.35;100.00
11198;BME280;5655;48.744;9.162;2022-12-11T03:34:37;95469.50;;;0.99;100.00
11198;BME280;5655;48.744;9.162;2022-12-11T03:37:06;95466.94;;;0.70;100.00
11198;BME280;5655;48.744;9.162;2022-12-11T03:39:36;95468.72;;;1.31;100.00
11198;BME280;5655;48.744;9.162;2022-12-11T03:42:06;95470.69;;;1.22;100.00
11198;BME280;5655;48.744;9.162;2022-12-11T03:44:34;95475.63;;;1.24;100.00
11198;BME280;5655;48.744;9.162;2022-12-11T03:47:02;95474.41;;;1.21;100.00
11198;BME280;5655;48.744;9.162;2022-12-11T03:49:33;95472.16;;;0.99;100.00
11198;BME280;5655;48.744;9.162;2022-12-11T03:52:01;95464.16;;;0.45;100.00
11198;BME280;5655;48.744;9.162;2022-12-11T03:54:27;95465.47;;;0.60;100.00
11198;BME280;5655;48.744;9.162;2022-12-11T03:56:56;95470.78;;;0.93;100.00
11198;BME280;5655;48.744;9.162;2022-12-11T03:59:22;95470.66;;;1.10;100.00
11198;BME280;5655;48.744;9.162;2022-12-11T04:01:48;95461.34;;;0.92;100.00
11198;BME280;5655;48.744;9.162;2022-12-11T04:04:13;95461.06;;;1.06;100.00
11198;BME280;5655;48.744;9.162;2022-12-11T04:06:39;95462.06;;;1.13;100.00
11198;BME280;5655;48.744;9.162;2022-12-11T04:09:04;95460.56;;;0.50;100.00
11198;BME280;5655;48.744;9.162;2022-12-11T04:11:29;95456.81;;;0.30;100.00
11198;BME280;5655;48.744;9.162;2022-12-11T04:14:02;95462.63;;;0.44;100.00
11198;BME280;5655;48.744;9.162;2022-12-11T04:16:47;95455.97;;;0.47;100.00
11198;BME280;5655;48.744;9.162;2022-12-11T04:19:12;95453.19;;;0.85;100.00
11198;BME280;5655;48.744;9.162;2022-12-11T04:22:11;95450.16;;;0.95;100.00
11198;BME280;5655;48.744;9.162;2022-12-11T04:24:55;95452.59;;;0.38;100.00
11198;BME280;5655;48.744;9.162;2022-12-11T04:27:21;95445.03;;;0.57;100.00
11198;BME280;5655;48.744;9.162;2022-12-11T04:30:09;95444.66;;;0.67;100.00
11198;BME280;5655;48.744;9.162;2022-12-11T04:32:35;95445.69;;;0.54;100.00
11198;BME280;5655;48.744;9.162;2022-12-11T04:35:00;95445.31;;;0.64;100.00
11198;BME280;5655;48.744;9.162;2022-12-11T04:37:26;95439.88;;;0.61;100.00
11198;BME280;5655;48.744;9.162;2022-12-11T04:39:52;95441.13;;;0.42;100.00
11198;BME280;5655;48.744;9.162;2022-12-11T04:42:17;95435.28;;;0.37;100.00
11198;BME280;5655;48.744;9.162;2022-12-11T04:44:43;95430.75;;;0.17;100.00
11198;BME280;5655;48.744;9.162;2022-12-11T04:47:08;95430.59;;;0.42;100.00
11198;BME280;5655;48.744;9.162;2022-12-11T04:49:33;95428.09;;;0.25;100.00
11198;BME280;5655;48.744;9.162;2022-12-11T04:51:59;95436.50;;;0.10;100.00
11198;BME280;5655;48.744;9.162;2022-12-11T04:54:24;95439.13;;;-0.19;100.00
11198;BME280;5655;48.744;9.162;2022-12-11T04:56:49;95434.72;;;-0.36;100.00
11198;BME280;5655;48.744;9.162;2022-12-11T04:59:15;95424.53;;;-0.37;100.00
11198;BME280;5655;48.744;9.162;2022-12-11T05:01:40;95431.69;;;-0.17;100.00
11198;BME280;5655;48.744;9.162;2022-12-11T05:04:05;95418.97;;;-0.07;100.00
11198;BME280;5655;48.744;9.162;2022-12-11T05:06:31;95422.84;;;-0.13;100.00
11198;BME280;5655;48.744;9.162;2022-12-11T05:08:56;95411.22;;;-0.32;100.00
11198;BME280;5655;48.744;9.162;2022-12-11T05:11:22;95413.19;;;-0.29;100.00
11198;BME280;5655;48.744;9.162;2022-12-11T05:13:47;95416.13;;;-0.22;100.00
11198;BME280;5655;48.744;9.162;2022-12-11T05:16:15;95420.56;;;-0.14;100.00
11198;BME280;5655;48.744;9.162;2022-12-11T05:18:40;95420.34;;;-0.38;100.00
11198;BME280;5655;48.744;9.162;2022-12-11T05:21:08;95421.56;;;-0.27;100.00
11198;BME280;5655;48.744;9.162;2022-12-11T05:23:34;95422.81;;;-0.04;100.00
11198;BME280;5655;48.744;9.162;2022-12-11T05:26:02;95423.38;;;-0.19;100.00
11198;BME280;5655;48.744;9.162;2022-12-11T05:28:29;95430.16;;;-0.18;100.00
11198;BME280;5655;48.744;9.162;2022-12-11T05:31:04;95417.38;;;0.01;100.00
11198;BME280;5655;48.744;9.162;2022-12-11T05:33:30;95419.47;;;0.16;100.00
11198;BME280;5655;48.744;9.162;2022-12-11T05:35:55;95413.31;;;0.33;100.00
11198;BME280;5655;48.744;9.162;2022-12-11T05:38:21;95405.47;;;0.04;100.00
11198;BME280;5655;48.744;9.162;2022-12-11T05:41:04;95406.56;;;0.23;100.00
11198;BME280;5655;48.744;9.162;2022-12-11T05:43:32;95399.13;;;-0.04;100.00
11198;BME280;5655;48.744;9.162;2022-12-11T05:46:25;95390.28;;;-0.20;100.00
11198;BME280;5655;48.744;9.162;2022-12-11T05:48:53;95382.25;;;-0.53;100.00
11198;BME280;5655;48.744;9.162;2022-12-11T05:51:19;95375.16;;;-0.61;100.00
11198;BME280;5655;48.744;9.162;2022-12-11T05:53:47;95375.41;;;-0.16;100.00
11198;BME280;5655;48.744;9.162;2022-12-11T05:56:18;95383.50;;;-0.30;100.00
11198;BME280;5655;48.744;9.162;2022-12-11T05:58:44;95389.44;;;-0.41;100.00
11198;BME280;5655;48.744;9.162;2022-12-11T06:01:16;95405.88;;;-0.53;100.00
11198;BME280;5655;48.744;9.162;2022-12-11T06:03:42;95400.88;;;-0.37;100.00
11198;BME280;5655;48.744;9.162;2022-12-11T06:06:07;95409.81;;;-0.38;100.00
11198;BME280;5655;48.744;9.162;2022-12-11T06:08:33;95412.53;;;-0.18;100.00
11198;BME280;5655;48.744;9.162;2022-12-11T06:10:59;95414.09;;;-0.25;100.00
11198;BME280;5655;48.744;9.162;2022-12-11T06:13:24;95420.00;;;-0.28;100.00
11198;BME280;5655;48.744;9.162;2022-12-11T06:15:49;95419.34;;;-0.25;100.00
11198;BME280;5655;48.744;9.162;2022-12-11T06:18:15;95407.50;;;-0.31;100.00
11198;BME280;5655;48.744;9.162;2022-12-11T06:20:41;95409.41;;;-0.49;100.00
11198;BME280;5655;48.744;9.162;2022-12-11T06:23:06;95409.00;;;-0.68;100.00
11198;BME280;5655;48.744;9.162;2022-12-11T06:25:32;95400.13;;;-0.93;100.00
11198;BME280;5655;48.744;9.162;2022-12-11T06:27:58;95387.78;;;-1.01;100.00
11198;BME280;5655;48.744;9.162;2022-12-11T06:30:23;95394.13;;;-0.56;100.00
11198;BME280;5655;48.744;9.162;2022-12-11T06:32:49;95387.25;;;-0.77;100.00
11198;BME280;5655;48.744;9.162;2022-12-11T06:35:14;95394.88;;;-0.47;100.00
11198;BME280;5655;48.744;9.162;2022-12-11T06:37:40;95387.75;;;-0.46;100.00
11198;BME280;5655;48.744;9.162;2022-12-11T06:40:06;95390.34;;;-0.37;100.00
11198;BME280;5655;48.744;9.162;2022-12-11T06:42:32;95387.91;;;-0.42;100.00
11198;BME280;5655;48.744;9.162;2022-12-11T06:44:58;95390.13;;;-0.53;100.00
11198;BME280;5655;48.744;9.162;2022-12-11T06:47:28;95392.63;;;0.02;100.00
11198;BME280;5655;48.744;9.162;2022-12-11T06:49:54;95397.00;;;-0.78;100.00
11198;BME280;5655;48.744;9.162;2022-12-11T06:52:21;95384.66;;;-0.86;100.00
11198;BME280;5655;48.744;9.162;2022-12-11T06:54:46;95400.94;;;-0.55;100.00
11198;BME280;5655;48.744;9.162;2022-12-11T06:57:11;95399.38;;;-0.56;100.00
11198;BME280;5655;48.744;9.162;2022-12-11T06:59:37;95406.13;;;-0.84;100.00
11198;BME280;5655;48.744;9.162;2022-12-11T07:02:03;95416.25;;;-0.57;100.00
11198;BME280;5655;48.744;9.162;2022-12-11T07:04:28;95418.66;;;-0.43;100.00
11198;BME280;5655;48.744;9.162;2022-12-11T07:06:55;95414.88;;;-0.63;100.00
11198;BME280;5655;48.744;9.162;2022-12-11T07:09:21;95405.72;;;-0.48;100.00
11198;BME280;5655;48.744;9.162;2022-12-11T07:11:51;95408.47;;;-0.44;100.00
11198;BME280;5655;48.744;9.162;2022-12-11T07:14:17;95405.72;;;-1.20;100.00
11198;BME280;5655;48.744;9.162;2022-12-11T07:16:42;95399.25;;;-1.14;100.00
11198;BME280;5655;48.744;9.162;2022-12-11T07:19:08;95410.44;;;-0.79;100.00
11198;BME280;5655;48.744;9.162;2022-12-11T07:21:33;95412.47;;;-0.85;100.00
11198;BME280;5655;48.744;9.162;2022-12-11T07:23:59;95402.97;;;-0.60;100.00
11198;BME280;5655;48.744;9.162;2022-12-11T07:26:24;95405.75;;;-0.57;100.00
11198;BME280;5655;48.744;9.162;2022-12-11T07:28:50;95407.28;;;-0.64;100.00
11198;BME280;5655;48.744;9.162;2022-12-11T07:31:21;95411.81;;;-0.65;100.00
11198;BME280;5655;48.744;9.162;2022-12-11T07:33:47;95409.38;;;-0.87;100.00
11198;BME280;5655;48.744;9.162;2022-12-11T07:36:16;95410.31;;;-0.83;100.00
11198;BME280;5655;48.744;9.162;2022-12-11T07:38:42;95416.50;;;-0.41;100.00
11198;BME280;5655;48.744;9.162;2022-12-11T07:41:10;95422.81;;;-0.33;100.00
11198;BME280;5655;48.744;9.162;2022-12-11T07:43:36;95413.75;;;-1.08;100.00
11198;BME280;5655;48.744;9.162;2022-12-11T07:46:05;95416.97;;;-1.03;100.00
11198;BME280;5655;48.744;9.162;2022-12-11T07:48:34;95428.06;;;-0.80;100.00
11198;BME280;5655;48.744;9.162;2022-12-11T07:51:17;95417.91;;;-0.43;100.00
11198;BME280;5655;48.744;9.162;2022-12-11T07:53:44;95408.38;;;-0.57;100.00
11198;BME280;5655;48.744;9.162;2022-12-11T07:56:10;95417.00;;;-0.48;100.00
11198;BME280;5655;48.744;9.162;2022-12-11T07:58:35;95411.16;;;-0.62;100.00
11198;BME280;5655;48.744;9.162;2022-12-11T08:01:09;95417.28;;;-0.40;100.00
11198;BME280;5655;48.744;9.162;2022-12-11T08:03:34;95412.72;;;-0.61;100.00
11198;BME280;5655;48.744;9.162;2022-12-11T08:06:00;95408.38;;;-0.57;100.00
11198;BME280;5655;48.744;9.162;2022-12-11T08:08:25;95412.75;;;-0.31;100.00
11198;BME280;5655;48.744;9.162;2022-12-11T08:10:50;95420.13;;;-0.25;100.00
11198;BME280;5655;48.744;9.162;2022-12-11T08:13:16;95419.72;;;-0.35;100.00
11198;BME280;5655;48.744;9.162;2022-12-11T08:15:41;95414.22;;;-0.13;100.00
11198;BME280;5655;48.744;9.162;2022-12-11T08:18:06;95411.97;;;-0.03;100.00
11198;BME280;5655;48.744;9.162;2022-12-11T08:20:32;95413.28;;;-0.17;100.00
11198;BME280;5655;48.744;9.162;2022-12-11T08:22:57;95412.53;;;-0.18;100.00
11198;BME280;5655;48.744;9.162;2022-12-11T08:25:23;95412.72;;;-0.23;100.00
11198;BME280;5655;48.744;9.162;2022-12-11T08:27:48;95415.84;;;0.00;100.00
11198;BME280;5655;48.744;9.162;2022-12-11T08:30:13;95415.84;;;-0.38;100.00
11198;BME280;5655;48.744;9.162;2022-12-11T08:32:39;95414.19;;;-0.05;100.00
11198;BME280;5655;48.744;9.162;2022-12-11T08:35:05;95414.31;;;-0.01;100.00
11198;BME280;5655;48.744;9.162;2022-12-11T08:37:32;95423.44;;;0.22;100.00
11198;BME280;5655;48.744;9.162;2022-12-11T08:39:58;95422.03;;;0.04;100.00
11198;BME280;5655;48.744;9.162;2022-12-11T08:42:23;95431.69;;;0.41;100.00
11198;BME280;5655;48.744;9.162;2022-12-11T08:44:49;95425.13;;;0.47;100.00
11198;BME280;5655;48.744;9.162;2022-12-11T08:47:14;95422.81;;;0.67;100.00
11198;BME280;5655;48.744;9.162;2022-12-11T08:49:39;95427.69;;;0.98;100.00
11198;BME280;5655;48.744;9.162;2022-12-11T08:52:05;95430.38;;;0.89;100.00
11198;BME280;5655;48.744;9.162;2022-12-11T08:54:30;95415.19;;;0.53;100.00
11198;BME280;5655;48.744;9.162;2022-12-11T08:56:56;95421.53;;;0.31;100.00
11198;BME280;5655;48.744;9.162;2022-12-11T08:59:22;95423.19;;;0.36;100.00
11198;BME280;5655;48.744;9.162;2022-12-11T09:01:49;95421.63;;;0.14;100.00
11198;BME280;5655;48.744;9.162;2022-12-11T09:04:14;95414.34;;;0.40;100.00
11198;BME280;5655;48.744;9.162;2022-12-11T09:06:40;95421.16;;;0.62;100.00
11198;BME280;5655;48.744;9.162;2022-12-11T09:09:05;95412.00;;;1.01;100.00
11198;BME280;5655;48.744;9.162;2022-12-11T09:11:34;95414.44;;;1.18;100.00
11198;BME280;5655;48.744;9.162;2022-12-11T09:14:00;95421.66;;;0.76;100.00
11198;BME280;5655;48.744;9.162;2022-12-11T09:16:26;95414.88;;;0.55;100.00
11198;BME280;5655;48.744;9.162;2022-12-11T09:18:55;95407.13;;;0.91;100.00
11198;BME280;5655;48.744;9.162;2022-12-11T09:21:23;95413.03;;;0.88;100.00
11198;BME280;5655;48.744;9.162;2022-12-11T09:23:52;95410.25;;;0.72;100.00
11198;BME280;5655;48.744;9.162;2022-12-11T09:26:18;95415.91;;;0.41;100.00
11198;BME280;5655;48.744;9.162;2022-12-11T09:28:44;95416.78;;;0.45;100.00
11198;BME280;5655;48.744;9.162;2022-12-11T09:31:12;95415.75;;;0.59;100.00
11198;BME280;5655;48.744;9.162;2022-12-11T09:33:38;95410.03;;;0.36;100.00
11198;BME280;5655;48.744;9.162;2022-12-11T09:36:04;95406.94;;;0.75;100.00
11198;BME280;5655;48.744;9.162;2022-12-11T09:38:31;95414.34;;;0.82;100.00
11198;BME280;5655;48.744;9.162;2022-12-11T09:40:56;95404.63;;;0.95;100.00
11198;BME280;5655;48.744;9.162;2022-12-11T09:46:06;95406.56;;;0.85;100.00
11198;BME280;5655;48.744;9.162;2022-12-11T09:48:35;95400.22;;;1.31;100.00
11198;BME280;5655;48.744;9.162;2022-12-11T09:51:49;95398.63;;;1.06;100.00
11198;BME280;5655;48.744;9.162;2022-12-11T09:53:50;95398.91;;;1.38;100.00
11198;BME280;5655;48.744;9.162;2022-12-11T09:56:18;95403.47;;;1.16;100.00
11198;BME280;5655;48.744;9.162;2022-12-11T10:01:38;95401.34;;;1.55;100.00
11198;BME280;5655;48.744;9.162;2022-12-11T10:04:27;95405.88;;;1.66;100.00
11198;BME280;5655;48.744;9.162;2022-12-11T10:07:08;95397.19;;;1.78;100.00
11198;BME280;5655;48.744;9.162;2022-12-11T10:15:58;95397.28;;;2.06;100.00
11198;BME280;5655;48.744;9.162;2022-12-11T10:18:26;95391.47;;;1.64;100.00
11198;BME280;5655;48.744;9.162;2022-12-11T10:20:52;95389.06;;;1.59;100.00
11198;BME280;5655;48.744;9.162;2022-12-11T10:23:20;95388.81;;;1.52;100.00
11198;BME280;5655;48.744;9.162;2022-12-11T10:26:03;95375.63;;;2.00;100.00
11198;BME280;5655;48.744;9.162;2022-12-11T10:28:29;95377.78;;;1.25;100.00
11198;BME280;5655;48.744;9.162;2022-12-11T10:31:06;95368.84;;;1.75;100.00
11198;BME280;5655;48.744;9.162;2022-12-11T10:33:48;95370.78;;;1.90;100.00
11198;BME280;5655;48.744;9.162;2022-12-11T10:36:20;95375.44;;;1.81;100.00
11198;BME280;5655;48.744;9.162;2022-12-11T10:38:46;95372.78;;;1.93;100.00
11198;BME280;5655;48.744;9.162;2022-12-11T10:41:18;95364.22;;;1.84;100.00
11198;BME280;5655;48.744;9.162;2022-12-11T10:43:47;95365.97;;;1.68;100.00
11198;BME280;5655;48.744;9.162;2022-12-11T10:46:17;95359.59;;;1.93;100.00
11198;BME280;5655;48.744;9.162;2022-12-11T10:48:49;95362.00;;;2.10;100.00
11198;BME280;5655;48.744;9.162;2022-12-11T10:51:14;95360.00;;;1.34;100.00
11198;BME280;5655;48.744;9.162;2022-12-11T10:53:41;95357.63;;;1.78;100.00
11198;BME280;5655;48.744;9.162;2022-12-11T10:56:08;95349.50;;;1.59;100.00
11198;BME280;5655;48.744;9.162;2022-12-11T10:58:38;95346.63;;;1.76;100.00
11198;BME280;5655;48.744;9.162;2022-12-11T11:01:06;95351.78;;;1.60;100.00
11198;BME280;5655;48.744;9.162;2022-12-11T11:03:34;95347.41;;;1.76;100.00
11198;BME280;5655;48.744;9.162;2022-12-11T11:06:18;95350.59;;;1.94;100.00
11198;BME280;5655;48.744;9.162;2022-12-11T11:08:45;95351.56;;;1.77;100.00
11198;BME280;5655;48.744;9.162;2022-12-11T11:11:32;95345.72;;;1.96;100.00
11198;BME280;5655;48.744;9.162;2022-12-11T11:14:18;95336.91;;;2.04;100.00
11198;BME280;5655;48.744;9.162;2022-12-11T11:16:46;95335.25;;;2.24;100.00
11198;BME280;5655;48.744;9.162;2022-12-11T11:19:22;95335.56;;;2.22;100.00
11198;BME280;5655;48.744;9.162;2022-12-11T11:22:04;95336.91;;;2.04;100.00
11198;BME280;5655;48.744;9.162;2022-12-11T11:24:37;95330.38;;;1.74;100.00
11198;BME280;5655;48.744;9.162;2022-12-11T11:27:26;95327.19;;;2.33;100.00
11198;BME280;5655;48.744;9.162;2022-12-11T11:29:57;95332.66;;;1.88;100.00
11198;BME280;5655;48.744;9.162;2022-12-11T11:32:52;95328.47;;;1.99;100.00
11198;BME280;5655;48.744;9.162;2022-12-11T11:35:22;95333.63;;;1.95;100.00
11198;BME280;5655;48.744;9.162;2022-12-11T11:40:28;95329.47;;;1.82;100.00
11198;BME280;5655;48.744;9.162;2022-12-11T11:45:48;95320.56;;;2.39;100.00
11198;BME280;5655;48.744;9.162;2022-12-11T11:53:49;95315.63;;;1.73;100.00
11198;BME280;5655;48.744;9.162;2022-12-11T11:56:32;95308.72;;;2.20;100.00
11198;BME280;5655;48.744;9.162;2022-12-11T11:59:33;95312.59;;;2.79;100.00
11198;BME280;5655;48.744;9.162;2022-12-11T12:02:00;95319.59;;;2.31;100.00
11198;BME280;5655;48.744;9.162;2022-12-11T12:04:31;95309.81;;;2.32;100.00
11198;BME280;5655;48.744;9.162;2022-12-11T12:12:55;95317.38;;;2.33;100.00
11198;BME280;5655;48.744;9.162;2022-12-11T12:15:50;95315.84;;;2.32;100.00
11198;BME280;5655;48.744;9.162;2022-12-11T12:18:25;95313.97;;;1.68;100.00
11198;BME280;5655;48.744;9.162;2022-12-11T12:21:08;95318.41;;;2.28;100.00
11198;BME280;5655;48.744;9.162;2022-12-11T12:23:52;95315.78;;;2.16;100.00
11198;BME280;5655;48.744;9.162;2022-12-11T12:26:30;95313.13;;;2.28;100.00
11198;BME280;5655;48.744;9.162;2022-12-11T12:29:07;95308.06;;;2.23;100.00
11198;BME280;5655;48.744;9.162;2022-12-11T12:31:39;95307.91;;;2.04;100.00
11198;BME280;5655;48.744;9.162;2022-12-11T12:37:34;95300.63;;;2.13;100.00
11198;BME280;5655;48.744;9.162;2022-12-11T12:43:39;95281.09;;;2.58;100.00
11198;BME280;5655;48.744;9.162;2022-12-11T12:48:44;95282.50;;;2.67;100.00
11198;BME280;5655;48.744;9.162;2022-12-11T12:51:12;95280.41;;;2.61;100.00
11198;BME280;5655;48.744;9.162;2022-12-11T12:53:40;95278.88;;;2.60;100.00
11198;BME280;5655;48.744;9.162;2022-12-11T12:56:10;95272.66;;;2.68;100.00
11198;BME280;5655;48.744;9.162;2022-12-11T12:58:43;95272.50;;;2.77;100.00
11198;BME280;5655;48.744;9.162;2022-12-11T13:01:19;95269.22;;;2.95;100.00
11198;BME280;5655;48.744;9.162;2022-12-11T13:04:05;95269.91;;;2.92;100.00
11198;BME280;5655;48.744;9.162;2022-12-11T13:06:44;95282.81;;;2.66;100.00
11198;BME280;5655;48.744;9.162;2022-12-11T13:09:25;95285.13;;;2.67;100.00
11198;BME280;5655;48.744;9.162;2022-12-11T13:11:54;95283.28;;;2.56;100.00
11198;BME280;5655;48.744;9.162;2022-12-11T13:14:31;95284.53;;;2.74;100.00
11198;BME280;5655;48.744;9.162;2022-12-11T13:17:34;95285.03;;;2.64;100.00
11198;BME280;5655;48.744;9.162;2022-12-11T13:20:10;95287.16;;;2.31;100.00
11198;BME280;5655;48.744;9.162;2022-12-11T13:22:50;95287.00;;;2.11;100.00
11198;BME280;5655;48.744;9.162;2022-12-11T13:25:27;95277.22;;;2.40;100.00
11198;BME280;5655;48.744;9.162;2022-12-11T13:28:06;95278.75;;;2.41;100.00
11198;BME280;5655;48.744;9.162;2022-12-11T13:30:33;95284.75;;;2.25;100.00
11198;BME280;5655;48.744;9.162;2022-12-11T13:33:03;95276.13;;;2.41;100.00
11198;BME280;5655;48.744;9.162;2022-12-11T13:35:31;95284.44;;;2.43;100.00
11198;BME280;5655;48.744;9.162;2022-12-11T13:38:05;95276.47;;;2.55;100.00
11198;BME280;5655;48.744;9.162;2022-12-11T13:40:39;95281.56;;;2.48;100.00
11198;BME280;5655;48.744;9.162;2022-12-11T13:43:20;95281.44;;;2.28;100.00
11198;BME280;5655;48.744;9.162;2022-12-11T13:45:50;95283.09;;;1.93;100.00
11198;BME280;5655;48.744;9.162;2022-12-11T13:48:37;95285.19;;;2.27;100.00
11198;BME280;5655;48.744;9.162;2022-12-11T13:51:04;95280.91;;;1.83;100.00
11198;BME280;5655;48.744;9.162;2022-12-11T13:53:30;95281.34;;;1.73;100.00
11198;BME280;5655;48.744;9.162;2022-12-11T13:56:06;95283.16;;;2.09;100.00
11198;BME280;5655;48.744;9.162;2022-12-11T13:58:37;95282.81;;;2.10;100.00
11198;BME280;5655;48.744;9.162;2022-12-11T14:01:07;95291.66;;;2.02;100.00
11198;BME280;5655;48.744;9.162;2022-12-11T14:03:37;95285.22;;;2.15;100.00
11198;BME280;5655;48.744;9.162;2022-12-11T14:06:04;95288.72;;;2.19;100.00
11198;BME280;5655;48.744;9.162;2022-12-11T14:08:35;95292.00;;;1.89;100.00